Time;durP1;ratioP1;P1;durP2;ratioP2;P2;SDS_P1;SDS_P2;PMS_P1;PMS_P2;Temp;Humidity;BMP_temperature;BMP_pressure;BME280_temperature;BME280_humidity;BME280_pressure;Samples;Min_cycle;Max_cycle;Signal;HPM_P1;HPM_P2
2021/12/12 00:01:38;;;;;;;;;50.00;45.50;;;;;5.13;88.67;102368.09;5039558;28;11543;-75
2021/12/12 00:04:36;;;;;;;;;46.50;40.50;;;;;5.24;88.52;102356.19;5085043;28;11514;-74
2021/12/12 00:07:32;;;;;;;;;49.75;45.50;;;;;5.20;88.08;102357.78;5079206;28;11645;-73
2021/12/12 00:10:33;;;;;;;;;58.25;49.50;;;;;5.24;88.13;102356.19;5092823;28;11681;-75
2021/12/12 00:13:38;;;;;;;;;46.75;41.00;;;;;5.26;87.45;102337.56;5069923;28;11564;-74
2021/12/12 00:16:34;;;;;;;;;40.25;40.00;;;;;5.02;87.54;102360.84;5073104;28;11602;-76
2021/12/12 00:19:31;;;;;;;;;46.75;44.25;;;;;5.10;87.90;102349.41;5073025;28;11647;-74
2021/12/12 00:22:21;;;;;;;;;39.00;35.75;;;;;5.00;88.22;102347.38;5071948;28;11666;-76
2021/12/12 00:24:51;;;;;;;;;41.75;36.25;;;;;5.13;87.48;102340.69;5073233;28;11529;-76
2021/12/12 00:27:47;;;;;;;;;44.75;42.25;;;;;5.18;87.53;102346.25;5059058;28;11521;-74
2021/12/12 00:30:43;;;;;;;;;38.25;36.00;;;;;5.08;87.66;102332.41;5075236;28;11537;-75
2021/12/12 00:33:43;;;;;;;;;24.00;24.00;;;;;4.83;89.14;102343.84;5070145;28;11634;-75
2021/12/12 00:36:41;;;;;;;;;28.50;26.25;;;;;4.59;89.74;102356.06;5058767;28;11528;-75
2021/12/12 00:39:26;;;;;;;;;26.25;26.25;;;;;4.85;88.50;102357.31;5072991;28;11541;-75
2021/12/12 00:42:24;;;;;;;;;24.00;22.75;;;;;4.83;88.04;102357.56;5071982;28;11558;-75
2021/12/12 00:44:55;;;;;;;;;25.75;23.00;;;;;5.02;87.43;102358.91;5053208;28;12335;-75
2021/12/12 00:47:51;;;;;;;;;29.50;29.50;;;;;4.98;87.06;102354.19;5053515;28;12365;-75
2021/12/12 00:50:47;;;;;;;;;35.50;35.50;;;;;5.05;86.85;102352.09;5071468;28;11632;-75
2021/12/12 00:53:44;;;;;;;;;38.50;38.50;;;;;5.05;86.76;102354.81;5081006;28;11610;-75
2021/12/12 00:56:41;;;;;;;;;29.25;28.00;;;;;5.12;86.98;102355.47;5087666;28;12297;-75
2021/12/12 00:59:37;;;;;;;;;16.25;16.25;;;;;4.91;86.98;102356.31;5071917;28;12316;-75
2021/12/12 01:02:33;;;;;;;;;20.25;19.50;;;;;4.91;86.38;102361.78;5072496;28;11540;-74
2021/12/12 01:05:29;;;;;;;;;19.25;18.50;;;;;4.81;87.30;102353.38;5071716;28;11538;-75
2021/12/12 01:08:26;;;;;;;;;15.50;15.25;;;;;4.90;86.61;102360.09;5058327;28;11533;-75
2021/12/12 01:11:36;;;;;;;;;24.25;23.00;;;;;4.79;86.84;102348.16;5058515;28;11617;-75
2021/12/12 01:14:36;;;;;;;;;22.75;22.75;;;;;4.92;86.89;102349.72;5061474;28;11467;-75
2021/12/12 01:17:17;;;;;;;;;3.50;3.50;;;;;4.62;87.29;102341.88;5072534;28;11504;-75
2021/12/12 01:20:15;;;;;;;;;9.25;9.25;;;;;4.32;88.76;102331.28;5072776;28;11497;-75
2021/12/12 01:23:20;;;;;;;;;12.25;12.25;;;;;4.46;89.34;102341.66;5072323;28;12366;-74
2021/12/12 01:26:16;;;;;;;;;14.00;14.00;;;;;4.62;88.32;102350.09;5055142;28;11506;-74
2021/12/12 01:28:49;;;;;;;;;10.75;10.75;;;;;4.44;88.26;102353.91;5072791;28;11629;-75
2021/12/12 01:31:47;;;;;;;;;18.25;15.25;;;;;4.46;88.94;102346.28;5071351;28;11488;-75
2021/12/12 01:34:43;;;;;;;;;13.00;13.00;;;;;4.22;89.66;102336.56;5070365;28;11623;-75
2021/12/12 01:37:42;;;;;;;;;11.00;9.50;;;;;4.35;89.61;102336.22;5057532;28;11474;-74
2021/12/12 01:40:41;;;;;;;;;10.00;10.00;;;;;4.18;89.86;102344.44;5070613;28;11426;-74
2021/12/12 01:43:43;;;;;;;;;13.50;11.75;;;;;4.41;89.13;102355.25;5070437;28;11546;-74
2021/12/12 01:46:50;;;;;;;;;12.50;11.75;;;;;4.02;90.99;102362.53;5071075;28;11480;-75
2021/12/12 01:49:50;;;;;;;;;14.00;13.25;;;;;4.31;89.93;102366.03;5069499;28;12368;-75
2021/12/12 01:52:46;;;;;;;;;22.25;22.25;;;;;4.39;89.67;102373.03;5071058;28;11526;-75
2021/12/12 01:55:24;;;;;;;;;18.50;18.00;;;;;4.46;89.83;102373.69;5072882;28;11461;-75
2021/12/12 01:58:24;;;;;;;;;15.00;15.00;;;;;4.47;89.11;102367.13;5067771;28;11453;-75
2021/12/12 02:01:24;;;;;;;;;15.50;15.25;;;;;4.49;88.64;102359.47;5075340;28;11480;-75
2021/12/12 02:03:58;;;;;;;;;13.25;13.25;;;;;4.30;89.40;102336.16;5074176;28;11575;-75
2021/12/12 02:06:54;;;;;;;;;11.50;11.50;;;;;4.16;89.80;102339.22;5070732;28;11577;-75
2021/12/12 02:09:51;;;;;;;;;14.25;14.25;;;;;4.14;90.43;102324.97;5069870;28;11446;-75
2021/12/12 02:12:48;;;;;;;;;15.50;15.50;;;;;4.35;89.38;102322.53;5069088;28;11549;-75
2021/12/12 02:15:46;;;;;;;;;8.25;8.25;;;;;4.32;89.64;102331.28;5061212;28;11613;-75
2021/12/12 02:18:47;;;;;;;;;16.00;15.75;;;;;4.42;89.36;102334.16;5070020;28;11618;-75
2021/12/12 02:22:11;;;;;;;;;11.75;11.00;;;;;4.56;89.24;102346.44;5077116;28;11466;-74
2021/12/12 02:37:36;;;;;;;;;21.00;21.00;;;;;4.41;88.52;102359.91;5071736;28;11584;-75
2021/12/12 02:40:43;;;;;;;;;18.00;18.00;;;;;4.37;88.02;102361.47;5073891;28;11533;-75
2021/12/12 02:43:43;;;;;;;;;12.00;12.00;;;;;4.31;87.37;102340.56;5071405;28;11635;-75
2021/12/12 02:46:41;;;;;;;;;11.00;11.00;;;;;4.36;87.48;102340.63;5072905;28;11559;-74
2021/12/12 02:50:06;;;;;;;;;8.50;8.50;;;;;4.33;87.88;102343.88;5070198;28;11486;-75
2021/12/12 02:53:20;;;;;;;;;13.75;13.75;;;;;4.41;87.74;102358.00;5072538;28;11479;-75
2021/12/12 02:56:20;;;;;;;;;12.00;11.75;;;;;4.40;88.00;102350.03;5073011;28;12300;-75
2021/12/12 02:59:21;;;;;;;;;14.25;14.25;;;;;4.37;88.32;102345.03;5061040;28;11425;-75
2021/12/12 03:02:26;;;;;;;;;13.50;13.50;;;;;3.87;89.59;102318.44;5073584;28;11507;-75
2021/12/12 03:05:23;;;;;;;;;14.75;13.00;;;;;4.05;90.11;102333.81;5069301;28;11441;-75
2021/12/12 03:08:19;;;;;;;;;14.00;14.00;;;;;4.22;89.04;102355.72;5073319;28;11468;-75
2021/12/12 03:11:16;;;;;;;;;14.75;14.25;;;;;4.17;88.38;102340.88;5073259;28;11582;-75
2021/12/12 03:14:12;;;;;;;;;13.25;13.25;;;;;4.08;89.03;102330.59;5072854;28;11482;-75
2021/12/12 03:17:12;;;;;;;;;15.00;12.25;;;;;3.89;88.92;102325.31;5073077;28;11609;-75
2021/12/12 03:20:23;;;;;;;;;12.75;12.75;;;;;3.90;89.62;102340.66;5069621;28;11462;-74
2021/12/12 03:23:23;;;;;;;;;16.25;16.25;;;;;3.92;89.77;102320.47;5069643;28;11565;-75
2021/12/12 03:26:19;;;;;;;;;19.00;17.00;;;;;3.71;89.83;102313.78;5073051;28;11537;-75
2021/12/12 03:29:16;;;;;;;;;14.50;14.50;;;;;3.59;90.38;102306.44;5074741;28;11477;-75
2021/12/12 03:32:15;;;;;;;;;15.25;15.25;;;;;3.89;89.64;102303.44;5068078;28;12400;-75
2021/12/12 03:35:11;;;;;;;;;14.50;14.50;;;;;3.88;89.37;102303.69;5067878;28;11566;-74
2021/12/12 03:38:07;;;;;;;;;24.00;18.00;;;;;3.99;89.72;102326.56;5066825;28;11492;-74
2021/12/12 03:41:07;;;;;;;;;16.50;16.25;;;;;4.05;88.88;102337.38;5065389;28;11459;-74
2021/12/12 03:44:09;;;;;;;;;11.00;11.00;;;;;3.92;88.75;102317.72;5064156;28;11443;-75
2021/12/12 03:47:13;;;;;;;;;11.75;11.75;;;;;3.59;90.06;102303.69;5064699;28;11464;-75
2021/12/12 03:50:16;;;;;;;;;20.75;20.25;;;;;3.86;89.02;102314.06;5065829;28;11443;-75
2021/12/12 03:53:12;;;;;;;;;14.00;14.00;;;;;4.12;87.89;102327.09;5063339;28;11538;-75
2021/12/12 03:56:11;;;;;;;;;15.75;15.75;;;;;3.82;88.86;102300.00;5072098;28;11481;-75
2021/12/12 03:59:07;;;;;;;;;20.25;20.25;;;;;3.67;89.47;102309.84;5072111;28;11518;-74
2021/12/12 04:02:04;;;;;;;;;23.75;22.00;;;;;3.88;88.89;102336.53;5071689;28;11623;-75
2021/12/12 04:05:00;;;;;;;;;15.25;15.25;;;;;3.99;88.33;102352.06;5032455;28;11588;-74
2021/12/12 04:07:55;;;;;;;;;18.00;18.00;;;;;4.00;88.19;102367.41;5029032;28;11555;-74
2021/12/12 04:10:51;;;;;;;;;19.00;19.00;;;;;4.06;88.29;102380.09;5029754;28;11715;-75
2021/12/12 04:13:51;;;;;;;;;25.50;25.00;;;;;3.99;88.15;102368.50;5026337;28;11572;-75
2021/12/12 04:16:51;;;;;;;;;22.25;21.75;;;;;3.67;88.75;102346.25;5026306;28;11773;-75
2021/12/12 04:19:48;;;;;;;;;21.75;21.75;;;;;3.57;89.33;102355.09;5037964;28;11539;-75
2021/12/12 04:22:45;;;;;;;;;23.00;23.00;;;;;3.74;88.82;102352.41;5025001;28;11745;-75
2021/12/12 04:25:41;;;;;;;;;20.50;20.50;;;;;3.73;88.78;102358.97;5032541;28;11558;-75
2021/12/12 04:28:36;;;;;;;;;22.75;20.75;;;;;3.77;88.73;102346.47;5030762;28;11564;-75
2021/12/12 04:31:34;;;;;;;;;17.50;17.50;;;;;3.81;88.11;102344.88;5032330;28;11545;-75
2021/12/12 04:34:32;;;;;;;;;14.00;13.50;;;;;3.52;88.69;102332.28;5031599;28;11608;-75
2021/12/12 04:37:28;;;;;;;;;21.75;21.75;;;;;3.43;89.54;102323.63;5033186;28;11532;-75
2021/12/12 04:40:28;;;;;;;;;26.25;26.25;;;;;3.79;87.90;102319.69;5027263;28;11621;-75
2021/12/12 04:43:24;;;;;;;;;17.50;17.50;;;;;3.32;89.54;102322.59;5031702;28;11613;-75
2021/12/12 04:46:25;;;;;;;;;17.75;16.75;;;;;3.47;89.69;102332.19;5027479;28;11576;-75
2021/12/12 04:52:44;;;;;;;;;18.25;18.25;;;;;3.66;88.37;102349.25;5029339;28;11551;-74
2021/12/12 04:55:52;;;;;;;;;21.50;20.50;;;;;3.81;87.92;102360.47;5031240;28;11587;-74
2021/12/12 04:58:58;;;;;;;;;15.75;15.75;;;;;3.69;87.21;102371.50;5031437;28;11571;-74
2021/12/12 05:02:10;;;;;;;;;21.00;18.50;;;;;3.67;87.44;102364.56;5030562;28;12433;-75
2021/12/12 05:05:26;;;;;;;;;24.25;19.25;;;;;3.54;88.21;102354.78;5032049;28;11619;-74
2021/12/12 05:08:43;;;;;;;;;18.00;18.00;;;;;3.71;88.17;102347.44;5035522;28;11674;-75
2021/12/12 05:12:03;;;;;;;;;27.00;21.50;;;;;3.74;87.95;102349.66;5028897;28;11522;-74
2021/12/12 05:15:13;;;;;;;;;19.75;18.75;;;;;3.63;87.92;102356.03;5030413;28;11576;-75
2021/12/12 05:18:28;;;;;;;;;15.50;14.75;;;;;3.49;87.52;102366.44;5031342;28;11599;-74
2021/12/12 05:21:29;;;;;;;;;18.25;18.25;;;;;3.67;87.55;102368.16;5028308;28;11564;-75
2021/12/12 05:24:29;;;;;;;;;19.25;16.50;;;;;3.67;87.07;102357.19;5042198;28;11555;-74
2021/12/12 05:27:27;;;;;;;;;15.75;15.00;;;;;3.52;88.26;102367.84;5034680;28;11603;-74
2021/12/12 05:30:29;;;;;;;;;15.50;15.50;;;;;3.41;88.29;102372.28;5034170;28;11535;-74
2021/12/12 05:33:25;;;;;;;;;18.00;18.00;;;;;3.61;87.47;102356.28;5034385;28;11582;-75
2021/12/12 05:36:21;;;;;;;;;13.50;11.75;;;;;3.68;86.70;102353.41;5034619;28;11609;-77
2021/12/12 05:39:18;;;;;;;;;14.50;14.50;;;;;3.44;87.12;102366.31;5032495;28;11518;-74
2021/12/12 05:42:17;;;;;;;;;17.00;15.50;;;;;3.32;87.38;102376.47;5035843;28;11546;-73
2021/12/12 05:45:14;;;;;;;;;29.75;29.75;;;;;3.46;88.10;102396.19;5044123;28;11708;-75
2021/12/12 05:48:10;;;;;;;;;17.00;15.75;;;;;3.14;88.96;102384.81;5016309;28;11604;-74
2021/12/12 05:51:06;;;;;;;;;15.00;15.00;;;;;3.30;88.02;102373.16;5058082;28;11587;-75
2021/12/12 05:54:03;;;;;;;;;18.00;16.75;;;;;3.28;88.17;102378.00;5038759;28;11540;-74
2021/12/12 05:57:01;;;;;;;;;21.00;20.00;;;;;3.33;87.75;102376.22;5033966;28;11565;-74
2021/12/12 05:59:57;;;;;;;;;18.25;18.25;;;;;3.17;88.57;102365.22;5031939;28;11540;-75
2021/12/12 06:02:55;;;;;;;;;17.00;17.00;;;;;3.06;89.21;102364.13;5046282;28;11531;-75
2021/12/12 06:05:52;;;;;;;;;19.75;17.50;;;;;3.19;88.41;102368.53;5058728;28;11525;-75
2021/12/12 06:08:49;;;;;;;;;18.25;15.25;;;;;3.01;89.70;102375.81;5074762;28;11525;-74
2021/12/12 06:11:48;;;;;;;;;19.00;18.00;;;;;2.95;89.49;102370.47;5068850;28;11476;-74
2021/12/12 06:14:45;;;;;;;;;11.75;11.75;;;;;2.76;89.17;102375.19;5073892;28;11529;-75
2021/12/12 06:17:41;;;;;;;;;12.25;12.25;;;;;2.95;89.60;102365.81;5068523;28;11463;-75
2021/12/12 06:20:14;;;;;;;;;16.25;16.25;;;;;2.94;89.26;102366.91;5074774;28;11453;-75
2021/12/12 06:23:11;;;;;;;;;27.00;27.00;;;;;3.07;88.91;102376.75;5073564;28;11489;-75
2021/12/12 06:26:07;;;;;;;;;20.50;19.75;;;;;3.14;88.77;102380.16;5061815;28;11476;-76
2021/12/12 06:29:04;;;;;;;;;24.00;22.75;;;;;3.18;88.94;102380.53;5074268;28;11491;-77
2021/12/12 06:32:00;;;;;;;;;15.75;14.00;;;;;2.83;89.41;102375.91;5069096;28;11475;-76
2021/12/12 06:34:58;;;;;;;;;16.25;14.50;;;;;2.93;89.63;102370.72;5068682;28;11508;-77
2021/12/12 06:37:54;;;;;;;;;11.50;11.50;;;;;3.13;88.90;102361.28;5067182;28;11488;-76
2021/12/12 06:40:32;;;;;;;;;14.00;12.00;;;;;2.87;89.25;102354.44;5058559;28;11427;-76
2021/12/12 06:43:06;;;;;;;;;18.75;18.75;;;;;3.03;89.25;102368.19;5056992;28;11540;-76
2021/12/12 06:45:36;;;;;;;;;22.50;21.75;;;;;3.11;88.68;102371.63;5057139;28;11521;-76
2021/12/12 06:48:07;;;;;;;;;20.50;19.75;;;;;3.15;88.98;102373.66;5074896;28;11545;-76
2021/12/12 06:50:47;;;;;;;;;32.25;32.00;;;;;3.24;88.29;102374.13;5074568;28;11559;-76
2021/12/12 06:53:18;;;;;;;;;27.50;27.50;;;;;3.19;88.92;102372.09;5056962;28;11477;-77
2021/12/12 06:56:08;;;;;;;;;30.25;27.25;;;;;3.43;88.23;102383.81;5070346;28;11496;-78
2021/12/12 06:58:51;;;;;;;;;24.75;24.00;;;;;3.47;88.13;102378.69;5073768;28;11645;-76
2021/12/12 07:01:22;;;;;;;;;17.50;17.25;;;;;3.34;88.44;102382.53;5074184;28;11490;-75
2021/12/12 07:04:00;;;;;;;;;14.75;14.25;;;;;3.34;88.16;102382.53;5045050;28;11561;-76
2021/12/12 07:06:59;;;;;;;;;15.50;14.50;;;;;3.13;89.38;102370.31;5051380;28;11516;-76
2021/12/12 07:09:48;;;;;;;;;14.00;14.00;;;;;3.21;89.27;102380.03;5053775;28;11576;-76
2021/12/12 07:12:45;;;;;;;;;21.50;20.00;;;;;3.39;89.51;102390.03;5053396;28;11623;-76
2021/12/12 07:15:49;;;;;;;;;16.75;14.00;;;;;3.59;89.21;102390.41;5053188;28;11720;-74
2021/12/12 07:18:46;;;;;;;;;12.75;12.75;;;;;3.57;89.23;102382.47;5053759;28;11578;-75
2021/12/12 07:21:44;;;;;;;;;17.50;14.75;;;;;3.45;88.59;102384.41;5064896;28;11526;-74
2021/12/12 07:24:15;;;;;;;;;12.50;11.75;;;;;3.37;89.50;102384.75;5054134;28;11608;-75
2021/12/12 07:26:52;;;;;;;;;15.25;15.25;;;;;3.39;89.37;102384.53;5054935;28;11584;-75
2021/12/12 07:29:23;;;;;;;;;13.00;10.75;;;;;3.08;90.35;102369.38;5053809;28;11567;-74
2021/12/12 07:31:52;;;;;;;;;15.50;14.75;;;;;3.35;90.43;102374.06;5036582;28;11576;-74
2021/12/12 07:34:21;;;;;;;;;16.50;15.00;;;;;3.33;90.41;102362.56;5056359;28;11587;-75
2021/12/12 07:36:54;;;;;;;;;18.00;15.25;;;;;3.42;90.42;102367.63;5053856;28;11556;-75
2021/12/12 07:39:50;;;;;;;;;15.00;15.00;;;;;3.62;89.64;102359.84;5061454;28;11672;-74
2021/12/12 07:42:48;;;;;;;;;23.75;23.00;;;;;3.51;89.58;102368.91;5056928;28;11538;-75
2021/12/12 07:45:43;;;;;;;;;19.25;14.75;;;;;3.41;89.92;102377.75;5054798;28;12447;-75
2021/12/12 07:48:44;;;;;;;;;18.50;17.75;;;;;3.54;89.68;102365.72;5058089;28;12305;-75
2021/12/12 07:51:41;;;;;;;;;17.25;12.75;;;;;3.52;90.15;102374.13;5046661;28;11562;-75
2021/12/12 07:54:09;;;;;;;;;57.33;50.00;;;;;3.63;88.90;102361.50;5054469;28;11565;-75
2021/12/12 07:56:42;;;;;;;;;24.00;16.75;;;;;3.66;88.79;102351.97;5053641;28;11569;-75
2021/12/12 07:59:11;;;;;;;;;27.00;19.50;;;;;3.70;88.80;102348.53;5064034;28;11653;-75
2021/12/12 08:01:42;;;;;;;;;12.00;12.00;;;;;3.59;88.58;102346.66;5071008;28;12276;-75
2021/12/12 08:04:12;;;;;;;;;18.50;18.50;;;;;3.48;89.54;102344.78;5068722;28;11511;-75
2021/12/12 08:06:40;;;;;;;;;26.75;24.50;;;;;3.76;89.06;102342.06;5065429;28;11487;-75
2021/12/12 08:09:09;;;;;;;;;16.00;16.00;;;;;3.52;88.74;102341.31;5056431;28;11517;-75
2021/12/12 08:11:39;;;;;;;;;28.25;22.00;;;;;3.54;89.55;102341.09;5058595;28;11546;-74
2021/12/12 08:14:13;;;;;;;;;18.50;15.75;;;;;3.76;88.52;102346.72;5075987;28;11571;-75
2021/12/12 08:16:59;;;;;;;;;21.75;21.75;;;;;3.38;89.38;102334.47;5065152;28;11515;-74
2021/12/12 08:19:29;;;;;;;;;16.75;16.75;;;;;3.61;89.47;102333.56;5072899;28;12248;-74
2021/12/12 08:22:11;;;;;;;;;16.00;16.00;;;;;3.59;89.26;102330.22;5058344;28;11490;-76
2021/12/12 08:24:40;;;;;;;;;9.00;6.50;;;;;3.62;88.66;102325.13;5048129;28;11474;-75
2021/12/12 08:27:11;;;;;;;;;21.00;18.00;;;;;3.48;88.83;102312.78;5062720;28;11446;-75
2021/12/12 08:29:40;;;;;;;;;11.50;11.50;;;;;3.34;89.86;102314.97;5062493;28;11473;-73
2021/12/12 08:32:11;;;;;;;;;15.25;14.50;;;;;3.48;89.33;102317.44;5073159;28;11509;-74
2021/12/12 08:34:52;;;;;;;;;22.00;20.25;;;;;3.48;89.72;102329.22;5072369;28;11538;-74
2021/12/12 08:37:20;;;;;;;;;20.75;20.75;;;;;3.48;89.57;102314.69;5073273;28;11504;-74
2021/12/12 08:39:48;;;;;;;;;24.75;22.75;;;;;3.46;89.44;102323.16;5056539;28;11529;-75
2021/12/12 08:42:17;;;;;;;;;22.00;18.25;;;;;3.67;89.06;102324.34;5064678;28;11478;-75
2021/12/12 08:44:49;;;;;;;;;17.75;17.75;;;;;3.77;87.79;102319.09;5081379;28;11505;-72
2021/12/12 08:47:17;;;;;;;;;15.00;11.75;;;;;3.42;88.94;102318.41;5073965;28;11496;-73
2021/12/12 08:49:46;;;;;;;;;25.75;21.25;;;;;3.55;88.48;102310.75;5074112;28;12369;-73
2021/12/12 08:52:45;;;;;;;;;17.75;17.75;;;;;3.56;88.38;102315.13;5074372;28;11636;-70
2021/12/12 08:55:44;;;;;;;;;18.50;17.50;;;;;3.47;89.03;102305.66;5071196;28;11477;-70
2021/12/12 08:58:25;;;;;;;;;14.50;14.50;;;;;3.39;88.21;102299.75;5072838;28;11519;-70
2021/12/12 09:01:20;;;;;;;;;11.50;11.50;;;;;3.33;88.90;102293.34;5080118;28;11475;-72
2021/12/12 09:04:10;;;;;;;;;16.75;16.00;;;;;3.43;88.08;102287.25;5071727;28;11605;-74
2021/12/12 09:07:24;;;;;;;;;17.00;17.00;;;;;3.47;88.23;102291.16;5082702;28;11542;-74
2021/12/12 09:10:26;;;;;;;;;19.25;19.25;;;;;3.51;88.11;102284.09;5072172;28;11672;-74
2021/12/12 09:13:28;;;;;;;;;20.75;20.00;;;;;3.60;86.87;102286.22;5072576;28;11526;-74
2021/12/12 09:16:30;;;;;;;;;15.50;13.75;;;;;3.77;86.36;102277.22;5070676;28;11547;-74
2021/12/12 09:19:32;;;;;;;;;19.00;16.50;;;;;3.85;86.03;102274.91;5083341;28;11603;-73
2021/12/12 09:22:34;;;;;;;;;17.50;17.50;;;;;3.76;86.48;102278.28;5072200;28;11602;-74
2021/12/12 09:25:37;;;;;;;;;18.00;18.00;;;;;3.58;86.76;102271.94;5083108;28;11679;-74
2021/12/12 09:28:56;;;;;;;;;17.50;17.50;;;;;3.62;86.77;102273.13;5072413;28;11606;-74
2021/12/12 09:31:59;;;;;;;;;21.00;21.00;;;;;3.78;86.23;102270.66;5071126;28;11562;-75
2021/12/12 09:35:00;;;;;;;;;27.75;26.00;;;;;3.95;85.95;102276.97;5071951;28;11568;-73
2021/12/12 09:37:36;;;;;;;;;17.50;15.25;;;;;3.71;85.56;102278.19;5072393;28;11591;-73
2021/12/12 09:40:57;;;;;;;;;16.25;15.50;;;;;4.00;85.01;102266.13;5083516;28;11683;-74
2021/12/12 09:43:50;;;;;;;;;18.25;17.75;;;;;4.19;84.35;102272.16;5071921;28;11734;-74
2021/12/12 09:47:30;;;;;;;;;17.75;16.75;;;;;4.02;83.95;102260.38;5071395;28;11573;-74
2021/12/12 09:53:52;;;;;;;;;21.75;18.50;;;;;4.00;84.08;102254.34;5072035;28;11672;-74
2021/12/12 09:57:09;;;;;;;;;18.75;18.75;;;;;4.02;83.58;102263.97;5072181;28;11540;-74
2021/12/12 10:00:22;;;;;;;;;11.00;11.00;;;;;4.00;84.29;102265.28;5072073;28;12326;-74
2021/12/12 10:03:13;;;;;;;;;25.25;23.50;;;;;4.12;83.80;102264.09;5072425;28;11700;-74
2021/12/12 10:06:49;;;;;;;;;38.25;38.25;;;;;3.86;84.74;102262.03;5070183;28;11568;-74
2021/12/12 10:09:59;;;;;;;;;28.75;28.75;;;;;3.70;85.15;102249.19;5072371;28;12346;-74
2021/12/12 10:13:21;;;;;;;;;25.75;25.75;;;;;3.54;84.82;102250.81;5075678;28;11574;-74
2021/12/12 10:16:23;;;;;;;;;27.25;25.25;;;;;3.55;86.06;102244.25;5075331;28;11608;-74
2021/12/12 10:19:35;;;;;;;;;24.00;24.00;;;;;3.73;85.53;102257.72;5086215;28;11546;-74
2021/12/12 10:22:22;;;;;;;;;34.25;29.00;;;;;3.77;85.93;102261.63;5075910;28;11568;-74
2021/12/12 10:25:23;;;;;;;;;36.00;34.00;;;;;3.59;85.28;102264.56;5074878;28;11690;-74
2021/12/12 10:28:32;;;;;;;;;28.00;26.25;;;;;3.65;84.60;102257.28;5074320;28;11544;-76
2021/12/12 10:31:36;;;;;;;;;31.75;26.50;;;;;3.39;85.67;102247.78;5074140;28;11563;-74
2021/12/12 10:34:41;;;;;;;;;28.25;25.50;;;;;3.32;85.75;102247.94;5074776;28;11606;-74
2021/12/12 10:38:20;;;;;;;;;28.25;25.50;;;;;3.61;85.09;102240.53;5074864;28;11556;-73
2021/12/12 10:41:21;;;;;;;;;22.75;22.75;;;;;3.45;84.69;102225.75;5073296;28;11556;-72
2021/12/12 10:44:30;;;;;;;;;24.75;24.75;;;;;3.72;84.51;102225.94;5073102;28;11653;-74
2021/12/12 10:47:11;;;;;;;;;33.50;28.75;;;;;3.93;83.43;102220.81;5075198;28;11593;-73
2021/12/12 10:50:00;;;;;;;;;32.50;32.00;;;;;3.92;83.30;102228.22;5075262;28;11568;-74
2021/12/12 10:53:21;;;;;;;;;64.67;51.33;;;;;3.77;84.33;102225.22;5075010;28;11611;-73
2021/12/12 10:56:23;;;;;;;;;66.67;52.00;;;;;3.71;85.29;102231.69;5074631;28;11603;-73
2021/12/12 10:59:27;;;;;;;;;57.50;48.50;;;;;3.95;84.81;102227.69;5074928;28;8859;-74
2021/12/12 11:02:32;;;;;;;;;54.00;45.67;;;;;3.95;84.65;102226.88;5074316;28;11656;-74
2021/12/12 11:05:38;;;;;;;;;42.75;41.00;;;;;3.87;84.78;102214.44;5074585;28;11558;-74
2021/12/12 11:08:38;;;;;;;;;34.25;32.50;;;;;3.62;85.55;102215.66;5074426;28;12337;-74
2021/12/12 11:11:44;;;;;;;;;43.50;39.00;;;;;3.75;84.73;102214.50;5073211;28;11575;-74
2021/12/12 11:14:56;;;;;;;;;32.75;32.75;;;;;3.79;84.38;102212.09;5085417;28;11550;-74
2021/12/12 11:17:34;;;;;;;;;40.00;35.25;;;;;4.04;83.58;102219.91;5074164;28;11602;-74
2021/12/12 11:20:41;;;;;;;;;30.00;29.75;;;;;4.17;82.80;102222.28;5085242;28;11577;-73
2021/12/12 11:23:51;;;;;;;;;28.00;22.00;;;;;3.75;83.59;102222.69;5072516;28;11663;-73
2021/12/12 11:27:04;;;;;;;;;25.50;25.50;;;;;3.85;83.49;102213.84;5074220;28;11549;-74
2021/12/12 11:29:47;;;;;;;;;29.25;28.25;;;;;3.94;82.76;102212.34;5073936;28;12323;-74
2021/12/12 11:32:28;;;;;;;;;44.50;35.75;;;;;4.13;82.63;102204.69;5073942;28;11565;-73
2021/12/12 11:35:26;;;;;;;;;30.00;26.00;;;;;3.79;83.42;102195.69;5073601;28;11561;-73
2021/12/12 11:38:40;;;;;;;;;28.75;28.75;;;;;3.85;83.28;102190.06;5073968;28;11758;-73
2021/12/12 11:41:56;;;;;;;;;33.75;32.75;;;;;4.05;82.94;102191.44;5073737;28;11591;-73
2021/12/12 11:45:24;;;;;;;;;36.00;32.50;;;;;4.09;82.63;102198.09;5073724;28;11561;-73
2021/12/12 11:48:44;;;;;;;;;31.50;28.00;;;;;3.80;83.25;102191.88;5073799;28;11555;-74
2021/12/12 11:51:43;;;;;;;;;29.75;28.75;;;;;4.01;82.93;102191.13;5073870;28;11644;-75
2021/12/12 11:55:03;;;;;;;;;36.25;33.00;;;;;4.17;82.46;102195.75;5073460;28;11582;-75
2021/12/12 11:58:16;;;;;;;;;30.50;30.50;;;;;4.26;82.25;102198.03;5073491;28;12335;-74
2021/12/12 12:01:31;;;;;;;;;39.25;38.25;;;;;4.11;82.69;102199.47;5063973;28;11626;-75
2021/12/12 12:04:35;;;;;;;;;48.25;42.00;;;;;4.17;82.56;102190.25;5084177;28;11558;-74
2021/12/12 12:08:07;;;;;;;;;61.67;49.67;;;;;4.19;82.21;102187.28;5073155;28;11598;-74
2021/12/12 12:11:39;;;;;;;;;33.00;29.75;;;;;4.03;82.89;102185.38;5073324;28;11574;-74
2021/12/12 12:14:59;;;;;;;;;42.00;37.75;;;;;4.20;82.34;102183.44;5071486;28;11594;-73
2021/12/12 12:17:45;;;;;;;;;39.25;36.75;;;;;4.42;82.28;102167.88;5073528;28;11685;-74
2021/12/12 12:20:55;;;;;;;;;34.00;28.75;;;;;4.28;82.07;102168.50;5073203;28;12356;-74
2021/12/12 12:27:07;;;;;;;;;52.50;47.75;;;;;4.39;81.91;102154.69;5072708;28;11561;-72
2021/12/12 12:29:43;;;;;;;;;58.67;48.33;;;;;4.47;81.43;102150.69;5073320;28;11564;-73
2021/12/12 12:32:41;;;;;;;;;50.00;46.00;;;;;4.05;82.51;102164.06;5072862;28;11590;-73
2021/12/12 12:36:32;;;;;;;;;56.67;47.33;;;;;4.31;81.70;102155.13;5067015;28;11526;-74
2021/12/12 12:39:31;;;;;;;;;44.50;42.50;;;;;4.22;81.74;102147.59;5073076;28;11618;-74
2021/12/12 12:42:42;;;;;;;;;40.50;40.50;;;;;3.82;83.05;102149.47;5073026;28;11617;-73
2021/12/12 12:46:08;;;;;;;;;43.50;42.75;;;;;4.05;82.44;102156.66;5072390;28;11624;-74
2021/12/12 12:49:24;;;;;;;;;39.75;39.00;;;;;4.36;81.31;102151.63;5072002;28;11521;-74
2021/12/12 12:52:37;;;;;;;;;46.50;44.00;;;;;4.15;82.03;102153.28;5071931;28;11678;-74
2021/12/12 12:56:10;;;;;;;;;56.33;49.33;;;;;4.17;81.94;102156.56;5071553;28;11538;-73
2021/12/12 12:59:29;;;;;;;;;39.75;37.25;;;;;3.79;83.11;102154.63;5073383;28;12329;-73
2021/12/12 13:02:38;;;;;;;;;30.75;30.75;;;;;3.98;83.10;102157.91;5071873;28;11560;-74
2021/12/12 13:05:33;;;;;;;;;47.50;44.75;;;;;4.05;82.93;102151.19;5071455;28;12271;-74
2021/12/12 13:08:54;;;;;;;;;31.50;31.50;;;;;3.86;83.64;102149.81;5071944;28;11532;-74
2021/12/12 13:12:02;;;;;;;;;37.25;37.25;;;;;4.03;82.82;102158.84;5072986;28;11540;-73
2021/12/12 13:15:39;;;;;;;;;37.50;37.50;;;;;4.11;81.68;102158.41;5072139;28;11656;-75
2021/12/12 13:18:37;;;;;;;;;42.75;41.75;;;;;4.21;81.53;102151.41;5071716;28;11600;-74
2021/12/12 13:22:02;;;;;;;;;43.00;41.75;;;;;4.08;81.54;102153.44;5071317;28;11580;-73
2021/12/12 13:25:05;;;;;;;;;39.00;38.50;;;;;4.05;81.29;102156.66;5071062;28;11519;-74
2021/12/12 13:28:15;;;;;;;;;39.50;34.75;;;;;3.80;82.14;102169.97;5072778;28;11551;-74
2021/12/12 13:31:27;;;;;;;;;40.00;33.50;;;;;3.78;82.42;102169.41;5072670;28;11533;-73
2021/12/12 13:34:36;;;;;;;;;39.25;33.50;;;;;3.59;83.28;102166.91;5071296;28;11535;-72
2021/12/12 13:37:31;;;;;;;;;38.25;36.00;;;;;3.59;83.23;102166.91;5071182;28;12325;-73
2021/12/12 13:40:39;;;;;;;;;39.25;36.50;;;;;3.68;83.16;102164.59;5071607;28;11582;-73
2021/12/12 13:43:36;;;;;;;;;42.67;40.67;;;;;3.83;83.03;102159.38;5072310;28;11639;-73
2021/12/12 13:46:23;;;;;;;;;46.33;44.00;;;;;3.70;84.50;102156.97;5056812;28;11610;-73
2021/12/12 13:49:27;;;;;;;;;58.67;49.67;;;;;3.90;83.37;102150.97;5075149;28;12332;-73
2021/12/12 13:52:39;;;;;;;;;37.00;36.00;;;;;3.55;84.64;102148.50;5076696;28;12304;-73
2021/12/12 13:56:02;;;;;;;;;38.50;32.75;;;;;3.77;83.43;102145.84;5076472;28;11665;-74
2021/12/12 13:59:01;;;;;;;;;38.25;36.00;;;;;3.74;82.44;102149.91;5075074;28;11524;-73